Time;durP1;ratioP1;P1;durP2;ratioP2;P2;SDS_P1;SDS_P2;PMS_P1;PMS_P2;Temp;Humidity;BMP_temperature;BMP_pressure;BME280_temperature;BME280_humidity;BME280_pressure;Samples;Min_cycle;Max_cycle;Signal;HPM_P1;HPM_P2
2022/07/15 00:00:22;;;;;;;0.00;0.00;;;14.50;99.90;;;;;;4962382;28;20458;-71
2022/07/15 00:02:50;;;;;;;0.00;0.00;;;14.60;99.90;;;;;;4962143;28;20447;-72
2022/07/15 00:05:18;;;;;;;0.00;0.00;;;14.60;99.90;;;;;;4962590;28;20440;-71
2022/07/15 00:07:45;;;;;;;0.00;0.00;;;14.70;99.90;;;;;;4962158;28;20607;-71
2022/07/15 00:10:15;;;;;;;0.00;0.00;;;14.80;99.90;;;;;;4962219;28;20461;-72
2022/07/15 00:12:44;;;;;;;0.00;0.00;;;14.90;99.90;;;;;;4962435;28;20447;-72
2022/07/15 00:15:13;;;;;;;0.00;0.00;;;14.90;99.90;;;;;;4962190;28;20516;-72
2022/07/15 00:17:41;;;;;;;0.00;0.00;;;15.10;99.90;;;;;;4961507;28;20558;-71
2022/07/15 00:20:10;;;;;;;0.00;0.00;;;15.20;99.90;;;;;;4962131;28;20452;-72
2022/07/15 00:22:38;;;;;;;0.00;0.00;;;15.20;99.90;;;;;;4961956;28;20444;-72
2022/07/15 00:25:08;;;;;;;0.00;0.00;;;15.20;99.90;;;;;;4961612;28;20466;-72
2022/07/15 00:27:37;;;;;;;0.00;0.00;;;15.20;99.90;;;;;;4961713;28;20757;-72
2022/07/15 00:30:06;;;;;;;0.00;0.00;;;15.30;99.90;;;;;;4961730;28;20452;-71
2022/07/15 00:32:34;;;;;;;0.00;0.00;;;15.30;99.90;;;;;;4961828;28;20564;-71
2022/07/15 00:35:02;;;;;;;0.00;0.00;;;15.30;99.90;;;;;;4962126;28;20803;-71
2022/07/15 00:37:30;;;;;;;0.00;0.00;;;15.30;99.90;;;;;;4961520;28;20470;-72
2022/07/15 00:39:57;;;;;;;0.00;0.00;;;15.20;99.90;;;;;;4963512;28;20443;-72
2022/07/15 00:45:12;;;;;;;0.00;0.00;;;15.00;99.90;;;;;;4962755;28;20432;-71
2022/07/15 00:47:40;;;;;;;0.00;0.00;;;15.00;99.90;;;;;;4961889;28;20924;-72
2022/07/15 00:50:09;;;;;;;0.00;0.00;;;15.00;99.90;;;;;;4961949;28;20520;-72
2022/07/15 00:52:40;;;;;;;0.00;0.00;;;15.00;99.90;;;;;;4961354;28;20470;-71
2022/07/15 00:55:11;;;;;;;0.00;0.00;;;15.00;99.90;;;;;;4961446;28;20495;-71
2022/07/15 00:57:42;;;;;;;0.00;0.00;;;14.90;99.90;;;;;;4961695;28;20467;-73
2022/07/15 01:00:14;;;;;;;0.00;0.00;;;14.90;99.90;;;;;;4961318;28;20447;-73
2022/07/15 01:02:43;;;;;;;0.00;0.00;;;14.90;99.90;;;;;;4967619;28;20943;-73
2022/07/15 01:05:12;;;;;;;0.00;0.00;;;14.80;99.90;;;;;;4966421;28;20444;-73
2022/07/15 01:07:40;;;;;;;0.00;0.00;;;14.90;99.90;;;;;;4961122;28;20464;-73
2022/07/15 01:10:08;;;;;;;0.00;0.00;;;14.80;99.90;;;;;;4961074;28;20543;-73
2022/07/15 01:12:38;;;;;;;0.00;0.00;;;14.90;99.90;;;;;;4960930;28;20452;-73
2022/07/15 01:15:07;;;;;;;0.00;0.00;;;15.00;99.90;;;;;;4961170;28;20468;-73
2022/07/15 01:17:36;;;;;;;0.00;0.00;;;15.00;99.90;;;;;;4960282;28;21009;-73
2022/07/15 01:20:07;;;;;;;0.00;0.00;;;15.10;99.90;;;;;;4961091;28;20535;-73
2022/07/15 01:22:39;;;;;;;0.00;0.00;;;15.10;99.90;;;;;;4961090;28;20458;-73
2022/07/15 01:25:08;;;;;;;0.00;0.00;;;15.00;99.90;;;;;;4960962;28;20460;-73
2022/07/15 01:27:37;;;;;;;0.00;0.00;;;15.10;99.90;;;;;;4960767;28;20895;-71
2022/07/15 01:30:06;;;;;;;0.00;0.00;;;15.10;99.90;;;;;;4961270;28;20635;-71
2022/07/15 01:32:34;;;;;;;0.00;0.00;;;15.10;99.90;;;;;;4960472;28;20440;-71
2022/07/15 01:35:02;;;;;;;0.00;0.00;;;15.10;99.90;;;;;;4960986;28;21142;-72
2022/07/15 01:37:30;;;;;;;0.00;0.00;;;15.10;99.90;;;;;;4960464;28;20464;-71
2022/07/15 01:39:59;;;;;;;0.00;0.00;;;15.10;99.90;;;;;;4960813;28;20444;-72
2022/07/15 01:42:27;;;;;;;0.00;0.00;;;15.10;99.90;;;;;;4960783;28;20814;-72
2022/07/15 01:44:54;;;;;;;0.00;0.00;;;15.10;99.90;;;;;;4960444;28;20454;-72
2022/07/15 01:47:22;;;;;;;0.00;0.00;;;15.00;99.90;;;;;;4960216;28;21022;-72
2022/07/15 01:49:49;;;;;;;0.00;0.00;;;14.90;99.90;;;;;;4960367;28;20773;-71
2022/07/15 01:52:17;;;;;;;0.00;0.00;;;14.70;99.90;;;;;;4960149;28;20444;-71
2022/07/15 01:54:45;;;;;;;0.00;0.00;;;14.70;99.90;;;;;;4960042;28;20488;-72
2022/07/15 01:57:14;;;;;;;0.00;0.00;;;14.70;99.90;;;;;;4960759;28;21031;-72
2022/07/15 02:03:29;;;;;;;0.00;0.00;;;14.80;99.90;;;;;;4968238;28;20443;-72
2022/07/15 02:05:57;;;;;;;0.00;0.00;;;14.90;99.90;;;;;;4959868;28;20916;-71
2022/07/15 02:08:25;;;;;;;0.00;0.00;;;15.00;99.90;;;;;;4959907;28;20471;-71
2022/07/15 02:10:53;;;;;;;0.00;0.00;;;15.10;99.90;;;;;;4960005;28;20721;-71
2022/07/15 02:13:22;;;;;;;0.00;0.00;;;15.10;99.90;;;;;;4960277;28;20451;-71
2022/07/15 02:15:50;;;;;;;0.00;0.00;;;15.10;99.90;;;;;;4959845;28;20479;-72
2022/07/15 02:21:47;;;;;;;0.00;0.00;;;15.00;99.90;;;;;;5693489;23;20483;-91
2022/07/15 02:24:19;;;;;;;0.00;0.00;;;14.90;99.90;;;;;;4957093;28;20507;-90
2022/07/15 02:26:48;;;;;;;0.00;0.00;;;14.80;99.90;;;;;;4955953;29;20456;-92
2022/07/15 02:29:18;;;;;;;0.00;0.00;;;14.70;99.90;;;;;;4952222;29;20457;-90
2022/07/15 02:31:46;;;;;;;0.00;0.00;;;14.70;99.90;;;;;;4953862;29;20883;-92
2022/07/15 02:34:15;;;;;;;0.00;0.00;;;14.70;99.90;;;;;;4952849;29;20530;-92
2022/07/15 02:36:43;;;;;;;0.00;0.00;;;14.70;99.90;;;;;;4953010;29;20491;-90
2022/07/15 02:39:11;;;;;;;0.00;0.00;;;14.80;99.90;;;;;;4951849;29;20715;-91
2022/07/15 02:41:39;;;;;;;0.00;0.00;;;14.80;99.90;;;;;;4952084;29;20452;-91
2022/07/15 02:44:07;;;;;;;0.00;0.00;;;14.90;99.90;;;;;;4951886;28;20543;-91
2022/07/15 02:46:37;;;;;;;0.00;0.00;;;15.00;99.90;;;;;;4951545;29;20457;-91
2022/07/15 02:49:05;;;;;;;0.00;0.00;;;14.90;99.90;;;;;;4953268;29;20481;-91
2022/07/15 02:51:33;;;;;;;0.00;0.00;;;14.90;99.90;;;;;;4953435;29;20615;-90
2022/07/15 02:54:01;;;;;;;0.00;0.00;;;14.90;99.90;;;;;;4954438;28;20515;-91
2022/07/15 02:56:29;;;;;;;0.00;0.00;;;15.00;99.90;;;;;;4956894;28;20456;-92
2022/07/15 02:58:58;;;;;;;0.00;0.00;;;14.90;99.90;;;;;;4969354;28;20568;-91
2022/07/15 03:01:26;;;;;;;0.00;0.00;;;14.90;99.90;;;;;;4950836;29;20457;-91
2022/07/15 03:03:56;;;;;;;0.00;0.00;;;14.90;99.90;;;;;;4952172;28;20484;-91
2022/07/15 03:06:24;;;;;;;0.00;0.00;;;14.90;99.90;;;;;;4954733;28;20544;-91
2022/07/15 03:08:52;;;;;;;0.00;0.00;;;15.00;99.90;;;;;;4955005;29;20461;-90
2022/07/15 03:11:20;;;;;;;0.00;0.00;;;15.00;99.90;;;;;;4958850;29;20464;-93
2022/07/15 03:13:48;;;;;;;0.00;0.00;;;15.10;99.90;;;;;;4959005;28;20477;-92
2022/07/15 03:16:16;;;;;;;0.00;0.00;;;15.10;99.90;;;;;;4954552;29;20506;-91
2022/07/15 03:18:45;;;;;;;0.00;0.00;;;15.10;99.90;;;;;;4954684;28;20453;-91
2022/07/15 03:21:15;;;;;;;0.00;0.00;;;15.20;99.90;;;;;;4954398;29;20690;-93
2022/07/15 03:23:44;;;;;;;0.00;0.00;;;15.20;99.90;;;;;;4953727;28;21147;-91
2022/07/15 03:26:12;;;;;;;0.00;0.00;;;15.20;99.90;;;;;;4955113;29;20516;-91
2022/07/15 03:28:40;;;;;;;0.00;0.00;;;15.30;99.90;;;;;;4954647;29;20593;-92
2022/07/15 03:31:08;;;;;;;0.00;0.00;;;15.20;99.90;;;;;;4953839;29;20453;-92
2022/07/15 03:33:37;;;;;;;0.00;0.00;;;15.20;99.90;;;;;;4955672;28;20476;-91
2022/07/15 03:36:06;;;;;;;0.00;0.00;;;15.20;99.90;;;;;;4956969;29;20567;-92
2022/07/15 03:38:35;;;;;;;0.00;0.00;;;15.20;99.90;;;;;;4959084;29;20556;-91
2022/07/15 03:41:03;;;;;;;0.00;0.00;;;15.20;99.90;;;;;;4961999;29;20736;-92
2022/07/15 03:43:32;;;;;;;0.00;0.00;;;15.20;99.90;;;;;;4958317;28;20480;-90
2022/07/15 03:46:04;;;;;;;0.00;0.00;;;15.20;99.90;;;;;;4956982;29;20463;-91
2022/07/15 03:48:32;;;;;;;0.00;0.00;;;15.10;99.90;;;;;;4955841;29;20863;-90
2022/07/15 03:51:00;;;;;;;0.00;0.00;;;15.10;99.90;;;;;;4955487;29;20456;-91
2022/07/15 03:53:35;;;;;;;0.00;0.00;;;15.10;99.90;;;;;;4955421;28;20488;-91
2022/07/15 03:56:05;;;;;;;0.00;0.00;;;15.10;99.90;;;;;;4956123;29;20487;-92
2022/07/15 03:58:34;;;;;;;0.00;0.00;;;15.10;99.90;;;;;;4970531;28;20460;-93
2022/07/15 04:01:03;;;;;;;0.00;0.00;;;15.10;99.90;;;;;;4963191;28;20449;-91
2022/07/15 04:03:36;;;;;;;0.00;0.00;;;15.30;99.90;;;;;;4957050;28;20802;-92
2022/07/15 04:06:04;;;;;;;0.00;0.00;;;15.20;99.90;;;;;;4957356;29;20848;-92
2022/07/15 04:08:32;;;;;;;0.00;0.00;;;15.30;99.90;;;;;;4959663;29;20489;-92
2022/07/15 04:11:02;;;;;;;0.00;0.00;;;15.20;99.90;;;;;;4960118;29;20456;-91
2022/07/15 04:13:30;;;;;;;0.00;0.00;;;15.20;99.90;;;;;;4964012;28;20487;-93
2022/07/15 04:15:59;;;;;;;0.00;0.00;;;15.30;99.90;;;;;;4963584;28;20971;-94
2022/07/15 04:18:27;;;;;;;0.00;0.00;;;15.30;99.90;;;;;;4959268;29;20456;-91
2022/07/15 04:21:01;;;;;;;0.00;0.00;;;15.40;99.90;;;;;;4960868;28;20445;-91
2022/07/15 04:23:32;;;;;;;0.00;0.00;;;15.40;99.90;;;;;;4960666;28;21009;-92
2022/07/15 04:26:03;;;;;;;0.00;0.00;;;15.30;99.90;;;;;;4958983;29;20516;-91
2022/07/15 04:28:32;;;;;;;0.00;0.00;;;15.40;99.90;;;;;;4958659;29;20531;-91
2022/07/15 04:31:02;;;;;;;0.00;0.00;;;15.50;99.90;;;;;;4957352;29;20459;-90
2022/07/15 04:33:31;;;;;;;0.00;0.00;;;15.50;99.90;;;;;;4956821;28;20980;-91
2022/07/15 04:35:59;;;;;;;0.00;0.00;;;15.50;99.90;;;;;;4955823;29;20538;-90
2022/07/15 04:38:27;;;;;;;0.00;0.00;;;15.60;99.90;;;;;;4956254;29;20453;-89
2022/07/15 04:40:55;;;;;;;0.00;0.00;;;15.70;99.90;;;;;;4958078;29;20464;-91
2022/07/15 04:43:25;;;;;;;0.00;0.00;;;15.70;99.90;;;;;;4957661;28;20531;-91
2022/07/15 04:45:54;;;;;;;0.00;0.00;;;15.90;99.90;;;;;;4957783;29;20540;-92
2022/07/15 04:51:23;;;;;;;0.00;0.00;;;15.90;99.90;;;;;;4895533;29;20490;-91
2022/07/15 04:53:51;;;;;;;0.00;0.00;;;16.00;99.90;;;;;;4942067;29;20565;-90
2022/07/15 04:56:20;;;;;;;0.00;0.00;;;16.00;99.90;;;;;;4959219;29;20905;-90
2022/07/15 04:58:49;;;;;;;0.00;0.00;;;16.10;99.90;;;;;;4962775;28;20489;-93
2022/07/15 05:01:18;;;;;;;0.00;0.00;;;16.20;99.90;;;;;;4963468;28;20477;-91
2022/07/15 05:03:50;;;;;;;0.00;0.00;;;16.20;99.90;;;;;;4957250;28;20481;-92
2022/07/15 05:06:18;;;;;;;0.00;0.00;;;16.20;99.90;;;;;;4959252;29;20463;-91
2022/07/15 05:08:46;;;;;;;0.00;0.00;;;16.20;99.90;;;;;;4957498;29;20464;-91
2022/07/15 05:11:15;;;;;;;0.00;0.00;;;16.20;99.90;;;;;;4954651;29;20492;-89
2022/07/15 05:13:44;;;;;;;0.00;0.00;;;16.10;99.90;;;;;;4954572;28;20477;-93
2022/07/15 05:16:14;;;;;;;0.00;0.00;;;16.10;99.90;;;;;;4956856;29;20457;-92
2022/07/15 05:18:44;;;;;;;0.00;0.00;;;16.20;99.90;;;;;;4956797;29;20459;-91
2022/07/15 05:21:16;;;;;;;0.00;0.00;;;16.20;99.90;;;;;;4957555;28;20879;-92
2022/07/15 05:23:51;;;;;;;0.00;0.00;;;16.10;99.90;;;;;;4956243;28;20500;-91
2022/07/15 05:26:40;;;;;;;0.00;0.00;;;16.20;99.90;;;;;;4956686;29;20924;-92
2022/07/15 05:29:12;;;;;;;0.00;0.00;;;16.20;99.90;;;;;;4955159;28;20457;-93
2022/07/15 05:31:42;;;;;;;0.00;0.00;;;16.20;99.90;;;;;;4955731;29;20457;-91
2022/07/15 05:34:11;;;;;;;0.00;0.00;;;16.10;99.90;;;;;;4954869;28;20504;-91
2022/07/15 05:36:40;;;;;;;0.00;0.00;;;16.20;99.90;;;;;;4954401;29;21109;-90
2022/07/15 05:39:08;;;;;;;0.00;0.00;;;16.20;99.90;;;;;;4955296;29;20488;-91
2022/07/15 05:41:37;;;;;;;0.00;0.00;;;16.20;99.90;;;;;;4954320;29;20551;-92
2022/07/15 05:44:11;;;;;;;0.00;0.00;;;16.20;99.90;;;;;;4953545;28;20564;-90
2022/07/15 05:46:39;;;;;;;0.00;0.00;;;16.20;99.90;;;;;;4953961;29;20480;-91
2022/07/15 05:49:10;;;;;;;0.00;0.00;;;16.10;99.90;;;;;;4953208;29;20461;-92
2022/07/15 05:51:42;;;;;;;0.00;0.00;;;15.80;99.90;;;;;;4954662;29;20548;-91
2022/07/15 05:54:13;;;;;;;0.00;0.00;;;15.70;99.90;;;;;;4957800;28;20767;-91
2022/07/15 05:56:44;;;;;;;0.00;0.00;;;15.60;99.90;;;;;;4956648;29;20851;-94
2022/07/15 05:59:15;;;;;;;0.00;0.00;;;15.50;99.90;;;;;;4968614;28;20454;-92
2022/07/15 06:01:43;;;;;;;0.00;0.00;;;15.50;99.90;;;;;;4964212;28;20457;-91
2022/07/15 06:04:21;;;;;;;0.00;0.00;;;15.60;99.90;;;;;;4956588;28;20480;-93
2022/07/15 06:06:49;;;;;;;0.00;0.00;;;15.90;99.90;;;;;;4959284;29;20449;-93
2022/07/15 06:09:17;;;;;;;0.00;0.00;;;16.00;99.90;;;;;;4955866;29;20452;-92
2022/07/15 06:11:46;;;;;;;0.00;0.00;;;16.20;99.90;;;;;;4954890;28;20485;-91
2022/07/15 06:14:16;;;;;;;0.00;0.00;;;16.40;99.90;;;;;;4959923;28;20750;-93
2022/07/15 06:16:44;;;;;;;0.00;0.00;;;16.70;99.90;;;;;;4957722;29;20467;-91
2022/07/15 06:19:13;;;;;;;0.00;0.00;;;16.80;99.90;;;;;;4955419;29;20440;-91
2022/07/15 06:21:43;;;;;;;0.00;0.00;;;16.90;99.90;;;;;;4954338;28;20453;-91
2022/07/15 06:24:11;;;;;;;0.00;0.00;;;17.00;99.90;;;;;;4954827;28;20536;-91
2022/07/15 06:26:40;;;;;;;0.00;0.00;;;17.10;99.90;;;;;;4954361;29;20468;-91
2022/07/15 06:29:08;;;;;;;0.00;0.00;;;17.20;99.90;;;;;;4967776;28;20457;-92
2022/07/15 06:31:36;;;;;;;0.00;0.00;;;17.10;99.90;;;;;;4963682;29;20524;-90
2022/07/15 06:34:08;;;;;;;0.00;0.00;;;17.30;99.90;;;;;;4955468;28;20489;-92
2022/07/15 06:36:36;;;;;;;0.00;0.00;;;17.40;99.90;;;;;;4954505;29;20515;-94
2022/07/15 06:39:06;;;;;;;0.00;0.00;;;17.40;99.90;;;;;;4958597;29;20497;-92
2022/07/15 06:41:34;;;;;;;0.00;0.00;;;17.50;99.90;;;;;;4965548;29;20709;-91
2022/07/15 06:44:05;;;;;;;0.00;0.00;;;17.60;99.90;;;;;;4963729;28;20490;-93
2022/07/15 06:46:34;;;;;;;0.00;0.00;;;17.60;99.90;;;;;;4962848;29;20516;-92
2022/07/15 06:49:03;;;;;;;0.00;0.00;;;17.50;99.90;;;;;;4966401;29;20529;-92
2022/07/15 06:51:31;;;;;;;0.00;0.00;;;17.60;99.90;;;;;;4961204;29;20527;-94
2022/07/15 06:54:03;;;;;;;0.00;0.00;;;17.70;99.90;;;;;;4954770;28;20482;-92
2022/07/15 06:56:33;;;;;;;0.00;0.00;;;17.70;99.90;;;;;;4956360;29;20453;-92
2022/07/15 06:59:02;;;;;;;0.00;0.00;;;17.70;99.90;;;;;;4959117;28;20471;-93
2022/07/15 07:01:31;;;;;;;0.00;0.00;;;17.70;99.90;;;;;;4972403;28;20777;-93
2022/07/15 07:04:06;;;;;;;0.00;0.00;;;17.70;99.90;;;;;;4960674;28;20767;-91
2022/07/15 07:06:35;;;;;;;0.00;0.00;;;17.70;99.90;;;;;;4954529;29;20454;-92
2022/07/15 07:09:04;;;;;;;0.00;0.00;;;17.70;99.90;;;;;;4955886;29;20453;-91
2022/07/15 07:11:34;;;;;;;0.00;0.00;;;17.80;99.90;;;;;;4955997;29;21045;-91
2022/07/15 07:14:02;;;;;;;0.00;0.00;;;18.00;99.90;;;;;;4956614;28;20957;-92
2022/07/15 07:16:30;;;;;;;0.00;0.00;;;18.10;99.90;;;;;;4955433;29;20461;-92
2022/07/15 07:19:00;;;;;;;0.00;0.00;;;18.10;99.90;;;;;;4954789;29;20483;-92
2022/07/15 07:21:30;;;;;;;0.00;0.00;;;18.10;99.90;;;;;;4954595;29;20450;-91
2022/07/15 07:24:00;;;;;;;0.00;0.00;;;18.10;99.90;;;;;;4956158;28;20502;-91
2022/07/15 07:26:28;;;;;;;0.00;0.00;;;18.00;99.90;;;;;;4957359;29;20525;-92
2022/07/15 07:28:58;;;;;;;0.00;0.00;;;18.10;99.90;;;;;;4959973;29;20470;-92
2022/07/15 07:31:35;;;;;;;0.00;0.00;;;18.10;99.90;;;;;;4961397;29;20468;-92
2022/07/15 07:34:05;;;;;;;0.00;0.00;;;18.10;99.90;;;;;;4961943;28;20477;-92
2022/07/15 07:36:34;;;;;;;0.00;0.00;;;18.10;99.90;;;;;;4964510;29;20457;-93
2022/07/15 07:39:07;;;;;;;0.00;0.00;;;18.30;99.90;;;;;;4966549;29;20996;-93
2022/07/15 07:41:35;;;;;;;0.00;0.00;;;18.40;99.90;;;;;;4964999;29;20471;-93
2022/07/15 07:44:08;;;;;;;0.00;0.00;;;18.40;99.90;;;;;;4959322;28;20507;-92
2022/07/15 07:46:39;;;;;;;0.00;0.00;;;18.50;99.90;;;;;;4956709;29;20593;-91
2022/07/15 07:49:08;;;;;;;0.00;0.00;;;18.60;99.90;;;;;;4959461;29;20451;-93
2022/07/15 07:51:57;;;;;;;0.00;0.00;;;18.70;99.90;;;;;;4957458;28;20436;-90
2022/07/15 07:54:25;;;;;;;0.00;0.00;;;18.80;99.90;;;;;;4958383;29;20742;-91
2022/07/15 07:56:53;;;;;;;0.00;0.00;;;18.90;99.90;;;;;;4958046;28;20826;-92
2022/07/15 07:59:23;;;;;;;0.00;0.00;;;18.90;99.90;;;;;;4962788;28;20507;-92
2022/07/15 08:01:58;;;;;;;0.00;0.00;;;19.00;99.90;;;;;;4975031;28;20506;-91
2022/07/15 08:04:29;;;;;;;0.00;0.00;;;18.90;99.90;;;;;;4972514;29;20453;-90
2022/07/15 08:06:57;;;;;;;0.00;0.00;;;18.70;99.90;;;;;;4971958;28;20469;-92
2022/07/15 08:09:27;;;;;;;0.00;0.00;;;18.50;99.90;;;;;;4968114;29;20459;-91
2022/07/15 08:11:58;;;;;;;0.00;0.00;;;18.20;99.90;;;;;;4965723;28;20486;-92
2022/07/15 08:14:28;;;;;;;0.00;0.00;;;18.00;99.90;;;;;;4965823;29;20453;-92
2022/07/15 08:16:57;;;;;;;0.00;0.00;;;17.90;99.90;;;;;;4964001;29;20446;-93
2022/07/15 08:19:28;;;;;;;0.00;0.00;;;17.70;99.90;;;;;;4969445;29;20512;-92
2022/07/15 08:21:56;;;;;;;0.00;0.00;;;17.50;99.90;;;;;;4965009;28;20937;-93
2022/07/15 08:24:25;;;;;;;0.00;0.00;;;17.50;99.90;;;;;;4960002;28;20508;-91
2022/07/15 08:26:57;;;;;;;0.00;0.00;;;17.40;99.90;;;;;;4958475;29;20461;-91
2022/07/15 08:29:28;;;;;;;0.00;0.00;;;17.30;99.90;;;;;;4957921;28;20454;-92
2022/07/15 08:31:59;;;;;;;0.00;0.00;;;17.30;99.90;;;;;;4960162;28;20977;-92
2022/07/15 08:34:29;;;;;;;0.00;0.00;;;17.40;99.90;;;;;;4958543;29;20456;-92
2022/07/15 08:36:58;;;;;;;0.00;0.00;;;17.60;99.90;;;;;;4959130;29;20517;-91
2022/07/15 08:39:27;;;;;;;0.00;0.00;;;17.70;99.90;;;;;;4957476;29;20507;-93
2022/07/15 08:41:56;;;;;;;0.00;0.00;;;17.80;99.90;;;;;;4958286;28;20512;-92
2022/07/15 08:44:25;;;;;;;0.00;0.00;;;17.80;99.90;;;;;;4958625;29;20465;-90
2022/07/15 08:47:00;;;;;;;0.00;0.00;;;17.90;99.90;;;;;;4957758;29;20570;-91
2022/07/15 08:49:34;;;;;;;0.00;0.00;;;17.90;99.90;;;;;;4959748;29;20454;-92
2022/07/15 08:52:03;;;;;;;0.00;0.00;;;17.90;99.90;;;;;;4958681;28;20476;-89
2022/07/15 08:54:35;;;;;;;0.00;0.00;;;18.00;99.90;;;;;;4959211;29;20458;-95
2022/07/15 08:57:07;;;;;;;0.00;0.00;;;18.00;99.90;;;;;;4958749;29;20459;-90
2022/07/15 08:59:35;;;;;;;0.00;0.00;;;18.00;99.90;;;;;;4964331;28;20501;-92
2022/07/15 09:02:06;;;;;;;0.00;0.00;;;18.20;99.90;;;;;;4974984;28;20439;-92
2022/07/15 09:04:35;;;;;;;0.00;0.00;;;18.50;99.90;;;;;;4961871;28;20462;-92
2022/07/15 09:07:04;;;;;;;0.00;0.00;;;18.80;99.90;;;;;;4957435;29;20454;-90
2022/07/15 09:09:34;;;;;;;0.00;0.00;;;18.80;99.90;;;;;;4958626;29;20797;-90
2022/07/15 09:12:06;;;;;;;0.00;0.00;;;18.40;99.90;;;;;;4962119;28;20662;-92
2022/07/15 09:14:48;;;;;;;0.00;0.00;;;17.90;99.90;;;;;;4962653;29;20446;-92
2022/07/15 09:17:26;;;;;;;0.00;0.00;;;17.60;99.90;;;;;;4964645;29;20516;-90
2022/07/15 09:20:07;;;;;;;0.00;0.00;;;17.40;99.90;;;;;;4968719;28;20485;-91
2022/07/15 09:22:49;;;;;;;0.00;0.00;;;17.30;99.90;;;;;;4975171;28;20488;-92
2022/07/15 09:25:22;;;;;;;0.00;0.00;;;17.30;99.90;;;;;;4975534;28;20440;-91
2022/07/15 09:27:51;;;;;;;0.00;0.00;;;17.40;99.90;;;;;;4975826;28;20452;-91
2022/07/15 09:33:35;;;;;;;0.00;0.00;;;17.60;99.90;;;;;;4963995;28;20472;-93
2022/07/15 09:36:13;;;;;;;0.00;0.00;;;17.70;99.90;;;;;;4960028;29;20511;-91
2022/07/15 09:38:46;;;;;;;0.00;0.00;;;17.80;99.90;;;;;;4959086;29;20511;-94
2022/07/15 09:41:22;;;;;;;0.00;0.00;;;17.80;99.90;;;;;;4959753;29;20519;-92
2022/07/15 09:43:52;;;;;;;0.00;0.00;;;17.80;99.90;;;;;;4959132;28;21034;-90
2022/07/15 09:46:37;;;;;;;0.00;0.00;;;17.90;99.90;;;;;;4958414;29;20446;-90
2022/07/15 09:49:09;;;;;;;0.00;0.00;;;17.90;99.90;;;;;;4958683;28;20452;-91
2022/07/15 09:51:46;;;;;;;0.00;0.00;;;18.20;99.90;;;;;;4958890;29;20458;-89
2022/07/15 09:54:18;;;;;;;0.00;0.00;;;18.40;99.90;;;;;;4960716;28;20469;-92
2022/07/15 09:56:48;;;;;;;0.00;0.00;;;18.60;99.90;;;;;;4959353;28;20455;-90
2022/07/15 09:59:16;;;;;;;0.00;0.00;;;18.70;99.90;;;;;;4958475;29;20479;-91
2022/07/15 10:01:47;;;;;;;0.00;0.00;;;18.80;99.90;;;;;;4968662;28;20459;-90
2022/07/15 10:04:21;;;;;;;0.00;0.00;;;18.90;99.90;;;;;;4967464;28;20456;-91
2022/07/15 10:06:52;;;;;;;0.00;0.00;;;19.00;99.90;;;;;;4962110;29;20459;-91
2022/07/15 10:09:45;;;;;;;0.00;0.00;;;19.20;99.90;;;;;;4957944;28;20488;-91
2022/07/15 10:12:19;;;;;;;0.00;0.00;;;19.50;99.90;;;;;;4956434;28;20503;-92
2022/07/15 10:15:12;;;;;;;0.00;0.00;;;19.70;99.90;;;;;;4958062;28;20453;-90
2022/07/15 10:18:12;;;;;;;0.00;0.00;;;20.00;99.90;;;;;;4958556;29;20562;-91
2022/07/15 10:21:17;;;;;;;0.00;0.00;;;20.10;99.90;;;;;;4950557;29;20486;-91
2022/07/15 10:24:19;;;;;;;0.00;0.00;;;20.30;99.90;;;;;;4955457;28;20598;-90
2022/07/15 10:27:04;;;;;;;0.00;0.00;;;20.30;99.90;;;;;;4961506;28;20449;-91
2022/07/15 10:29:36;;;;;;;0.00;0.00;;;20.10;99.90;;;;;;4959885;29;20449;-91
2022/07/15 10:32:07;;;;;;;0.00;0.00;;;20.00;99.90;;;;;;4962328;28;20952;-92
2022/07/15 10:34:43;;;;;;;0.00;0.00;;;20.10;99.90;;;;;;4957737;29;20686;-91
2022/07/15 10:37:13;;;;;;;0.00;0.00;;;20.30;99.90;;;;;;4959738;29;20480;-90
2022/07/15 10:40:05;;;;;;;0.00;0.00;;;20.30;99.90;;;;;;4958921;29;20523;-91
2022/07/15 10:43:03;;;;;;;0.00;0.00;;;20.40;99.90;;;;;;4958674;28;20472;-90
2022/07/15 10:45:37;;;;;;;0.00;0.00;;;20.40;99.90;;;;;;4960167;29;20537;-90
2022/07/15 10:48:30;;;;;;;0.00;0.00;;;20.50;99.90;;;;;;4961301;29;20454;-89
2022/07/15 10:51:00;;;;;;;0.00;0.00;;;20.50;99.90;;;;;;4958945;29;20481;-91
2022/07/15 10:53:32;;;;;;;0.00;0.00;;;20.50;99.90;;;;;;4958299;28;20480;-90
2022/07/15 10:56:30;;;;;;;0.00;0.00;;;20.50;99.90;;;;;;4956048;29;20837;-92
2022/07/15 10:59:14;;;;;;;0.00;0.00;;;20.60;99.90;;;;;;4957227;28;20531;-91
2022/07/15 11:01:45;;;;;;;0.00;0.00;;;20.60;99.90;;;;;;4968021;28;20437;-90
2022/07/15 11:04:18;;;;;;;0.00;0.00;;;20.60;99.90;;;;;;4967493;28;20448;-93
2022/07/15 11:07:25;;;;;;;0.00;0.00;;;20.60;99.90;;;;;;4959055;29;20485;-92
2022/07/15 11:09:57;;;;;;;0.00;0.00;;;20.70;99.90;;;;;;4958706;29;20448;-91
2022/07/15 11:13:00;;;;;;;0.00;0.00;;;20.50;99.90;;;;;;4958261;28;20480;-91
2022/07/15 11:15:32;;;;;;;0.00;0.00;;;20.50;99.90;;;;;;4957101;28;20524;-89
2022/07/15 11:18:03;;;;;;;0.00;0.00;;;20.40;99.90;;;;;;4957574;29;20944;-91
2022/07/15 11:20:39;;;;;;;0.00;0.00;;;20.30;99.90;;;;;;4967519;29;20481;-92
2022/07/15 11:23:10;;;;;;;0.00;0.00;;;20.20;99.90;;;;;;4956278;28;20492;-93
2022/07/15 11:25:48;;;;;;;0.00;0.00;;;19.90;99.90;;;;;;4956240;28;20456;-92
2022/07/15 11:28:18;;;;;;;0.00;0.00;;;19.80;99.90;;;;;;4959684;29;20457;-92
2022/07/15 11:30:53;;;;;;;0.00;0.00;;;19.80;99.90;;;;;;4961036;29;20847;-89
2022/07/15 11:33:29;;;;;;;0.00;0.00;;;19.80;99.90;;;;;;4959996;28;20472;-92
2022/07/15 11:36:24;;;;;;;0.00;0.00;;;20.10;99.90;;;;;;4971364;29;20440;-89
2022/07/15 11:38:58;;;;;;;0.00;0.00;;;20.30;99.90;;;;;;4964612;29;20461;-93
2022/07/15 11:44:32;;;;;;;0.00;0.00;;;20.70;99.90;;;;;;4958643;28;20531;-93
2022/07/15 11:47:10;;;;;;;0.00;0.00;;;20.90;99.90;;;;;;4959011;29;20448;-94
2022/07/15 11:49:39;;;;;;;0.00;0.00;;;21.00;99.90;;;;;;4961904;28;20799;-91
2022/07/15 11:52:12;;;;;;;0.00;0.00;;;21.20;99.90;;;;;;4960666;28;20457;-92
2022/07/15 11:54:57;;;;;;;0.00;0.00;;;21.30;99.90;;;;;;4958339;29;20456;-91
2022/07/15 11:57:52;;;;;;;0.00;0.00;;;21.30;99.90;;;;;;4959594;28;20448;-91
2022/07/15 12:00:31;;;;;;;0.00;0.00;;;21.40;99.90;;;;;;4960322;29;20515;-94
2022/07/15 12:03:09;;;;;;;0.00;0.00;;;21.60;99.90;;;;;;4976471;28;20524;-89
2022/07/15 12:05:38;;;;;;;0.00;0.00;;;21.80;99.90;;;;;;4962307;28;20441;-92
2022/07/15 12:08:06;;;;;;;0.00;0.00;;;21.80;99.90;;;;;;4959625;29;20635;-92
2022/07/15 12:10:39;;;;;;;0.00;0.00;;;21.60;99.90;;;;;;4960353;29;20487;-92
2022/07/15 12:13:13;;;;;;;0.00;0.00;;;21.60;99.90;;;;;;4961376;28;20547;-92
2022/07/15 12:15:49;;;;;;;0.00;0.00;;;21.50;99.90;;;;;;4959397;29;20749;-92
2022/07/15 12:18:30;;;;;;;0.00;0.00;;;21.50;99.90;;;;;;4940873;29;20445;-92
2022/07/15 12:21:02;;;;;;;0.00;0.00;;;21.50;99.90;;;;;;4940397;29;20925;-91
2022/07/15 12:23:34;;;;;;;0.00;0.00;;;21.50;99.90;;;;;;4937880;29;20509;-91
2022/07/15 12:26:11;;;;;;;0.00;0.00;;;21.60;99.90;;;;;;4939260;29;20763;-90
2022/07/15 12:28:42;;;;;;;0.00;0.00;;;21.80;99.90;;;;;;4937991;29;20520;-91
2022/07/15 12:31:27;;;;;;;0.00;0.00;;;21.90;99.90;;;;;;4938622;29;20668;-92
2022/07/15 12:34:03;;;;;;;0.00;0.00;;;21.90;99.90;;;;;;4942847;29;20561;-92
2022/07/15 12:36:40;;;;;;;0.00;0.00;;;21.70;99.90;;;;;;4951725;29;21005;-91
2022/07/15 12:39:13;;;;;;;0.00;0.00;;;21.80;99.90;;;;;;4938163;29;20520;-92
2022/07/15 12:42:02;;;;;;;0.00;0.00;;;21.90;99.90;;;;;;4937978;29;20508;-91
2022/07/15 12:44:34;;;;;;;0.00;0.00;;;22.00;99.90;;;;;;4938231;29;20454;-90
2022/07/15 12:47:20;;;;;;;0.00;0.00;;;22.00;99.90;;;;;;4939683;29;20473;-92
2022/07/15 12:49:58;;;;;;;0.00;0.00;;;21.90;99.90;;;;;;4939194;29;20443;-90
2022/07/15 12:52:39;;;;;;;0.00;0.00;;;21.90;99.90;;;;;;4941421;29;20475;-91
2022/07/15 12:55:22;;;;;;;0.00;0.00;;;21.90;99.90;;;;;;4944096;29;20481;-91
2022/07/15 12:57:53;;;;;;;0.00;0.00;;;21.90;99.90;;;;;;4941193;29;20465;-93
2022/07/15 13:00:24;;;;;;;0.00;0.00;;;21.90;99.90;;;;;;4939645;29;20579;-92
2022/07/15 13:03:10;;;;;;;0.00;0.00;;;22.00;99.90;;;;;;4944331;29;20509;-92
2022/07/15 13:05:54;;;;;;;0.00;0.00;;;22.10;99.90;;;;;;4953125;29;20759;-92
2022/07/15 13:08:26;;;;;;;0.00;0.00;;;22.10;99.90;;;;;;4938378;29;20455;-92
2022/07/15 13:11:00;;;;;;;0.00;0.00;;;22.10;99.90;;;;;;4939830;29;20826;-90
2022/07/15 13:13:44;;;;;;;0.00;0.00;;;22.00;99.90;;;;;;4944494;29;20644;-91
2022/07/15 13:16:21;;;;;;;0.00;0.00;;;22.00;99.90;;;;;;4944317;29;20465;-91
2022/07/15 13:19:11;;;;;;;0.00;0.00;;;21.80;99.90;;;;;;4942793;29;20462;-93
2022/07/15 13:21:43;;;;;;;0.00;0.00;;;21.50;99.90;;;;;;4942182;29;20621;-92
2022/07/15 13:24:14;;;;;;;0.00;0.00;;;21.40;99.90;;;;;;4939710;29;20505;-93
2022/07/15 13:26:59;;;;;;;0.00;0.00;;;21.30;99.90;;;;;;4941116;29;20811;-92
2022/07/15 13:29:36;;;;;;;0.00;0.00;;;21.40;99.90;;;;;;4941039;29;20532;-91
2022/07/15 13:32:07;;;;;;;0.00;0.00;;;21.30;99.90;;;;;;4939982;29;20528;-92